createdAt,value
2022-10-08T00:00:59.324Z,101029.13
2022-10-08T00:03:31.289Z,101028.94
2022-10-08T00:06:03.344Z,101005.91
2022-10-08T00:08:37.690Z,101037.53
2022-10-08T00:11:09.432Z,101037.38
2022-10-08T00:13:43.369Z,101022.84
2022-10-08T00:16:15.329Z,101027.31
2022-10-08T00:18:47.136Z,100997.22
2022-10-08T00:21:19.111Z,101019.88
2022-10-08T00:23:53.047Z,101021.78
2022-10-08T00:26:25.488Z,101017.41
2022-10-08T00:28:58.474Z,100996.09
2022-10-08T00:31:31.285Z,100982.91
2022-10-08T00:34:02.699Z,101007.81
2022-10-08T00:36:34.244Z,101003.72
2022-10-08T00:39:09.529Z,101012.34
2022-10-08T00:41:40.834Z,101015.81
2022-10-08T00:44:40.709Z,101003.94
2022-10-08T00:47:19.415Z,101003.13
2022-10-08T00:49:51.696Z,100992.72
2022-10-08T00:52:22.306Z,100989.25
2022-10-08T00:54:54.883Z,100982.19
2022-10-08T00:57:24.943Z,100993.81
2022-10-08T00:59:54.703Z,100996.19
2022-10-08T01:02:24.494Z,100995.19
2022-10-08T01:04:54.305Z,100988.53
2022-10-08T01:07:29.511Z,100956.59
2022-10-08T01:10:08.921Z,100984.38
2022-10-08T01:12:47.894Z,100983.41
2022-10-08T01:15:28.898Z,100985.06
2022-10-08T01:18:07.743Z,100962.84
2022-10-08T01:20:45.251Z,100975.03
2022-10-08T01:23:32.317Z,100967.06
2022-10-08T01:26:14.141Z,100967.91
2022-10-08T01:28:51.035Z,100988.66
2022-10-08T01:31:25.844Z,100986.06
2022-10-08T01:34:01.824Z,100969.06
2022-10-08T01:36:37.275Z,100993.16
2022-10-08T01:39:12.112Z,100949.97
2022-10-08T01:41:46.658Z,100987.97
2022-10-08T01:44:24.149Z,100970.81
2022-10-08T01:46:55.487Z,100992.16
2022-10-08T01:49:30.940Z,100993.09
2022-10-08T01:52:07.921Z,100990.38
2022-10-08T01:54:40.404Z,100935.09
2022-10-08T01:57:11.932Z,100950.66
2022-10-08T01:59:48.067Z,100918.63
2022-10-08T02:02:22.853Z,100962.66
2022-10-08T02:04:53.731Z,100966.03
2022-10-08T02:07:26.977Z,100972.06
2022-10-08T02:10:06.914Z,100964.28
2022-10-08T02:12:38.057Z,100933.03
2022-10-08T02:15:14.693Z,100968.44
2022-10-08T02:17:56.456Z,100951.25
2022-10-08T02:20:33.710Z,100959.91
2022-10-08T02:23:27.069Z,100967.69
2022-10-08T02:26:01.741Z,100978.28
2022-10-08T02:28:36.602Z,100959.50
2022-10-08T02:31:14.334Z,100968.25
2022-10-08T02:33:48.850Z,100963.88
2022-10-08T02:36:25.680Z,100975.88
2022-10-08T02:38:58.999Z,100943.34
2022-10-08T02:41:33.118Z,100912.41
2022-10-08T02:44:07.739Z,100932.13
2022-10-08T02:46:43.030Z,100959.03
2022-10-08T02:49:17.595Z,100951.28
2022-10-08T02:51:51.763Z,100965.88
2022-10-08T02:54:25.225Z,100953.06
2022-10-08T02:57:01.619Z,100922.22
2022-10-08T02:59:33.338Z,100966.78
2022-10-08T03:02:07.938Z,100979.78
2022-10-08T03:04:41.632Z,100969.78
2022-10-08T03:07:13.670Z,100959.38
2022-10-08T03:09:47.172Z,100948.41
2022-10-08T03:12:16.936Z,100978.53
2022-10-08T03:14:52.377Z,100955.25
2022-10-08T03:17:30.668Z,100970.97
2022-10-08T03:20:03.380Z,100971.81
2022-10-08T03:22:33.676Z,100983.25
2022-10-08T03:25:03.624Z,100978.13
2022-10-08T03:27:35.195Z,100978.81
2022-10-08T03:30:05.235Z,100969.38
2022-10-08T03:32:37.532Z,100976.34
2022-10-08T03:35:07.817Z,100975.41
2022-10-08T03:37:37.504Z,100956.38
2022-10-08T03:40:08.176Z,100959.22
2022-10-08T03:42:37.943Z,100974.66
2022-10-08T03:45:08.416Z,100964.31
2022-10-08T03:47:40.707Z,100976.56
2022-10-08T03:50:11.903Z,100972.22
2022-10-08T03:52:41.599Z,100968.94
2022-10-08T03:55:11.625Z,100981.13
2022-10-08T03:57:41.346Z,100984.63
2022-10-08T04:00:12.645Z,100970.78
2022-10-08T04:02:45.364Z,100988.88
2022-10-08T04:05:15.346Z,100990.59
2022-10-08T04:07:45.077Z,100985.53
2022-10-08T04:10:14.774Z,100958.03
2022-10-08T04:12:44.687Z,100980.38
2022-10-08T04:15:14.582Z,100979.47
2022-10-08T04:17:46.983Z,100986.41
2022-10-08T04:20:16.889Z,100988.81
2022-10-08T04:22:46.848Z,100947.47
2022-10-08T04:25:16.822Z,100974.19
2022-10-08T04:27:49.246Z,100968.00
2022-10-08T04:30:19.273Z,100966.25
2022-10-08T04:32:51.558Z,100959.22
2022-10-08T04:35:21.304Z,100972.63
2022-10-08T04:37:51.049Z,100983.09
2022-10-08T04:40:20.794Z,100958.94
2022-10-08T04:42:53.646Z,100991.69
2022-10-08T04:45:23.348Z,100976.09
2022-10-08T04:47:55.635Z,100995.13
2022-10-08T04:50:25.367Z,100952.16
2022-10-08T04:52:55.047Z,100982.50
2022-10-08T04:55:25.480Z,100986.97
2022-10-08T04:57:55.283Z,101007.50
2022-10-08T05:00:25.122Z,100994.53
2022-10-08T05:02:57.450Z,101009.38
2022-10-08T05:05:27.239Z,100989.50
2022-10-08T05:07:57.131Z,101006.72
2022-10-08T05:10:27.032Z,101022.28
2022-10-08T05:12:57.733Z,101019.75
2022-10-08T05:15:27.424Z,100974.59
2022-10-08T05:17:59.969Z,101028.16
2022-10-08T05:20:29.633Z,101013.31
2022-10-08T05:22:59.404Z,101031.28
2022-10-08T05:25:29.135Z,100997.59
2022-10-08T05:27:58.839Z,101017.47
2022-10-08T05:30:28.858Z,100996.09
2022-10-08T05:33:01.133Z,100979.47
2022-10-08T05:35:33.570Z,101005.50
2022-10-08T05:38:03.278Z,101000.19
2022-10-08T05:40:33.174Z,101006.88
2022-10-08T05:43:02.829Z,101009.34
2022-10-08T05:45:32.542Z,101004.31
2022-10-08T05:48:04.847Z,101018.22
2022-10-08T05:50:34.543Z,101018.00
2022-10-08T05:53:08.575Z,101025.91
2022-10-08T05:55:38.937Z,101019.75
2022-10-08T05:58:08.618Z,101023.09
2022-10-08T06:00:38.438Z,101026.31
2022-10-08T06:03:10.759Z,101041.00
2022-10-08T06:05:40.515Z,101034.88
2022-10-08T06:08:10.253Z,101015.91
2022-10-08T06:10:39.948Z,101037.63
2022-10-08T06:13:09.644Z,101046.25
2022-10-08T06:15:39.327Z,101051.31
2022-10-08T06:18:11.762Z,101045.44
2022-10-08T06:20:41.480Z,101060.81
2022-10-08T06:23:11.156Z,100998.50
2022-10-08T06:25:40.880Z,101072.88
2022-10-08T06:28:10.641Z,101032.38
2022-10-08T06:30:42.103Z,101084.16
2022-10-08T06:33:16.376Z,101086.91
2022-10-08T06:35:48.219Z,101066.28
2022-10-08T06:38:17.999Z,101096.41
2022-10-08T06:40:48.839Z,101043.88
2022-10-08T06:43:23.611Z,101102.38
2022-10-08T06:45:53.413Z,101085.75
2022-10-08T06:48:26.072Z,101108.34
2022-10-08T06:51:05.073Z,101118.69
2022-10-08T06:53:38.379Z,101080.88
2022-10-08T06:56:12.683Z,101101.47
2022-10-08T06:58:43.774Z,101115.41
2022-10-08T07:01:17.322Z,101128.38
2022-10-08T07:03:51.598Z,101122.28
2022-10-08T07:06:22.840Z,101140.53
2022-10-08T07:08:55.929Z,101151.53
2022-10-08T07:11:28.371Z,101131.50
2022-10-08T07:14:02.637Z,101149.53
2022-10-08T07:16:33.732Z,101158.97
2022-10-08T07:19:07.150Z,101161.56
2022-10-08T07:21:37.832Z,101160.84
2022-10-08T07:24:08.859Z,101154.75
2022-10-08T07:26:40.687Z,101142.59
2022-10-08T07:29:15.159Z,101175.19
2022-10-08T07:31:48.380Z,101169.16
2022-10-08T07:34:20.754Z,101169.28
2022-10-08T07:36:54.327Z,101189.47
2022-10-08T07:39:26.063Z,101188.50
2022-10-08T07:41:56.358Z,101175.63
2022-10-08T07:44:26.096Z,101158.25
2022-10-08T07:46:59.660Z,101204.88
2022-10-08T07:49:32.031Z,101207.75
2022-10-08T07:52:02.824Z,101207.72
2022-10-08T07:54:32.622Z,101213.88
2022-10-08T07:57:03.409Z,101201.91
2022-10-08T07:59:33.192Z,101223.47
2022-10-08T08:02:03.994Z,101224.53
2022-10-08T08:04:38.423Z,101190.88
2022-10-08T08:07:09.140Z,101219.88
2022-10-08T08:09:40.872Z,101200.88
2022-10-08T08:12:11.991Z,101219.75
2022-10-08T08:14:42.714Z,101172.50
2022-10-08T08:17:13.458Z,101222.38
2022-10-08T08:19:49.033Z,101207.13
2022-10-08T08:22:19.866Z,101225.50
2022-10-08T08:24:51.580Z,101228.91
2022-10-08T08:27:22.359Z,101208.47
2022-10-08T08:29:52.143Z,101225.09
2022-10-08T08:32:28.519Z,101227.75
2022-10-08T08:35:05.011Z,101238.09
2022-10-08T08:37:38.407Z,101252.66
2022-10-08T08:40:12.872Z,101252.72
2022-10-08T08:42:53.242Z,101233.94
2022-10-08T08:45:47.488Z,101237.22
2022-10-08T08:48:21.281Z,101250.97
2022-10-08T08:50:56.387Z,101261.34
2022-10-08T08:53:27.703Z,101253.66
2022-10-08T08:56:01.504Z,101255.22
2022-10-08T08:58:39.117Z,101263.31
2022-10-08T09:01:20.131Z,101260.91
2022-10-08T09:03:54.909Z,101261.84
2022-10-08T09:06:36.747Z,101269.78
2022-10-08T09:09:18.637Z,101251.88
2022-10-08T09:11:49.049Z,101226.22
2022-10-08T09:14:33.524Z,101272.75
2022-10-08T09:17:17.192Z,101232.97
2022-10-08T09:19:48.807Z,101263.97
2022-10-08T09:22:26.449Z,101265.81
2022-10-08T09:25:01.402Z,101281.47
2022-10-08T09:27:47.225Z,101284.41
2022-10-08T09:30:34.993Z,101278.44
2022-10-08T09:33:08.521Z,101291.97
2022-10-08T09:35:46.073Z,101265.06
2022-10-08T09:38:26.496Z,101286.72
2022-10-08T09:41:05.595Z,101301.25
2022-10-08T09:43:37.990Z,101243.44
2022-10-08T09:46:12.179Z,101309.94
2022-10-08T09:48:45.889Z,101303.06
2022-10-08T09:51:19.178Z,101239.28
2022-10-08T09:53:55.430Z,101308.50
2022-10-08T09:56:28.362Z,101302.53
2022-10-08T09:59:01.373Z,101301.72
2022-10-08T10:01:32.929Z,101300.19
2022-10-08T10:04:06.641Z,101316.56
2022-10-08T10:06:39.436Z,101312.22
2022-10-08T10:09:29.120Z,101313.81
2022-10-08T10:12:04.265Z,101319.69
2022-10-08T10:14:45.371Z,101296.56
2022-10-08T10:17:23.516Z,101319.00
2022-10-08T10:19:59.246Z,101269.94
2022-10-08T10:22:35.526Z,101294.13
2022-10-08T10:25:19.466Z,101283.91
2022-10-08T10:27:55.625Z,101288.97
2022-10-08T10:30:26.784Z,101276.00
2022-10-08T10:33:03.642Z,101293.38
2022-10-08T10:35:35.793Z,101325.34
2022-10-08T10:38:12.332Z,101315.13
2022-10-08T10:40:50.242Z,101315.16
2022-10-08T10:43:44.940Z,101319.56
2022-10-08T10:46:28.239Z,101310.13
2022-10-08T10:48:58.926Z,101255.88
2022-10-08T10:51:43.287Z,101285.22
2022-10-08T10:54:34.267Z,101317.91
2022-10-08T10:57:12.044Z,101281.63
2022-10-08T10:59:47.990Z,101314.28
2022-10-08T11:02:29.831Z,101315.16
2022-10-08T11:05:08.663Z,101316.03
2022-10-08T11:07:54.816Z,101311.75
2022-10-08T11:10:37.131Z,101274.69
2022-10-08T11:13:18.179Z,101267.81
2022-10-08T11:15:56.277Z,101306.72
2022-10-08T11:18:37.424Z,101311.03
2022-10-08T11:21:21.405Z,101330.66
2022-10-08T11:24:06.626Z,101291.44
2022-10-08T11:26:47.184Z,101356.41
2022-10-08T11:29:26.515Z,101333.59
2022-10-08T11:31:57.653Z,101336.81
2022-10-08T11:34:32.176Z,101322.13
2022-10-08T11:37:11.007Z,101340.41
2022-10-08T11:39:53.526Z,101333.56
2022-10-08T11:42:31.103Z,101327.56
2022-10-08T11:45:30.860Z,101358.66
2022-10-08T11:48:09.107Z,101358.75
2022-10-08T11:50:41.035Z,101335.59
2022-10-08T11:53:23.053Z,101335.75
2022-10-08T11:55:56.392Z,101339.19
2022-10-08T11:58:31.046Z,101343.56
2022-10-08T12:01:07.319Z,101328.16
2022-10-08T12:03:41.471Z,101320.50
2022-10-08T12:06:22.426Z,101332.69
2022-10-08T12:08:57.142Z,101314.47
2022-10-08T12:11:57.199Z,101330.13
2022-10-08T12:14:49.494Z,101336.09
2022-10-08T12:17:20.245Z,101343.66
2022-10-08T12:20:23.110Z,101343.72
2022-10-08T12:23:05.061Z,101340.41
2022-10-08T12:25:44.779Z,101345.75
2022-10-08T12:28:55.282Z,101354.25
2022-10-08T12:31:32.871Z,101352.56
2022-10-08T12:34:05.810Z,101332.69
2022-10-08T12:36:47.756Z,101291.44
2022-10-08T12:39:27.527Z,101319.97
2022-10-08T12:42:06.874Z,101325.16
2022-10-08T12:44:47.197Z,101346.75
2022-10-08T12:47:27.552Z,101347.63
2022-10-08T12:50:03.505Z,101355.38
2022-10-08T12:52:39.224Z,101346.81
2022-10-08T12:55:19.025Z,101334.78
2022-10-08T12:57:52.507Z,101347.81
2022-10-08T13:00:26.472Z,101353.06
2022-10-08T13:03:05.045Z,101328.22
2022-10-08T13:05:38.507Z,101294.66
2022-10-08T13:08:39.918Z,101353.28
2022-10-08T13:11:13.251Z,101358.50
2022-10-08T13:13:49.511Z,101342.03
2022-10-08T13:16:23.090Z,101353.34
2022-10-08T13:18:57.603Z,101336.94
2022-10-08T13:21:40.182Z,101369.75
2022-10-08T13:24:40.632Z,101373.25
2022-10-08T13:27:30.292Z,101357.81
2022-10-08T13:30:01.180Z,101367.25
2022-10-08T13:32:35.330Z,101407.53
2022-10-08T13:35:07.518Z,101414.88
2022-10-08T13:37:40.787Z,101426.69
2022-10-08T13:40:22.077Z,101388.38
2022-10-08T13:42:56.707Z,101453.03
2022-10-08T13:45:27.918Z,101417.00
2022-10-08T13:47:59.930Z,101454.53
2022-10-08T13:50:31.702Z,101451.03
2022-10-08T13:53:03.627Z,101451.06
2022-10-08T13:55:37.041Z,101427.69
2022-10-08T13:58:10.514Z,101453.72
2022-10-08T14:00:42.560Z,101438.19
2022-10-08T14:03:17.043Z,101442.59
2022-10-08T14:05:49.901Z,101452.19
2022-10-08T14:08:24.035Z,101409.13
2022-10-08T14:10:57.994Z,101454.66
2022-10-08T14:13:30.322Z,101412.44
2022-10-08T14:16:01.124Z,101435.06
2022-10-08T14:18:32.022Z,101439.69
2022-10-08T14:21:01.857Z,101411.25
2022-10-08T14:23:32.132Z,101448.59
2022-10-08T14:26:03.902Z,101447.91
2022-10-08T14:28:40.120Z,101451.44
2022-10-08T14:31:10.030Z,101437.56
2022-10-08T14:33:40.858Z,101440.22
2022-10-08T14:36:18.510Z,101436.81
2022-10-08T14:38:48.391Z,101462.69
2022-10-08T14:41:19.145Z,101441.81
2022-10-08T14:43:52.591Z,101466.13
2022-10-08T14:46:22.434Z,101445.28
2022-10-08T14:48:53.202Z,101444.34
2022-10-08T14:51:23.064Z,101470.41
2022-10-08T14:53:54.861Z,101445.31
2022-10-08T14:56:25.889Z,101455.66
2022-10-08T14:58:59.241Z,101460.75
2022-10-08T15:01:29.522Z,101460.72
2022-10-08T15:03:59.565Z,101457.28
2022-10-08T15:06:30.411Z,101474.53
2022-10-08T15:09:01.213Z,101471.09
2022-10-08T15:11:32.010Z,101459.00
2022-10-08T15:14:05.395Z,101477.91
2022-10-08T15:16:35.207Z,101479.72
2022-10-08T15:19:05.163Z,101482.22
2022-10-08T15:21:35.918Z,101495.28
2022-10-08T15:24:05.912Z,101493.56
2022-10-08T15:26:35.718Z,101496.88
2022-10-08T15:29:09.091Z,101497.63
2022-10-08T15:31:38.987Z,101488.75
2022-10-08T15:34:09.792Z,101481.06
2022-10-08T15:36:40.537Z,101500.91
2022-10-08T15:39:15.015Z,101487.13
2022-10-08T15:41:48.065Z,101508.69
2022-10-08T15:44:22.849Z,101486.16
2022-10-08T15:46:59.873Z,101499.13
2022-10-08T15:49:35.439Z,101511.19
2022-10-08T15:52:06.402Z,101510.97
2022-10-08T15:54:38.672Z,101510.09
2022-10-08T15:57:11.286Z,101527.56
2022-10-08T15:59:44.685Z,101526.72
2022-10-08T16:02:17.768Z,101518.69
2022-10-08T16:04:49.958Z,101519.63
2022-10-08T16:07:20.037Z,101524.75
2022-10-08T16:09:49.926Z,101533.31
2022-10-08T16:12:19.752Z,101534.34
2022-10-08T16:14:53.231Z,101542.09
2022-10-08T16:17:23.947Z,101526.63
2022-10-08T16:19:53.805Z,101541.41
2022-10-08T16:22:23.583Z,101548.25
2022-10-08T16:24:53.383Z,101542.09
2022-10-08T16:27:24.111Z,101553.25
2022-10-08T16:29:56.510Z,101533.50
2022-10-08T16:32:26.393Z,101581.41
2022-10-08T16:34:56.223Z,101581.09
2022-10-08T16:37:26.998Z,101582.66
2022-10-08T16:39:57.156Z,101592.06
2022-10-08T16:42:26.949Z,101577.34
2022-10-08T16:45:00.300Z,101593.88
2022-10-08T16:47:31.075Z,101586.91
2022-10-08T16:50:01.827Z,101604.22
2022-10-08T16:52:31.693Z,101609.09
2022-10-08T16:55:01.442Z,101603.28
2022-10-08T16:57:32.736Z,101602.41
2022-10-08T17:00:07.026Z,101622.41
2022-10-08T17:02:36.777Z,101627.41
2022-10-08T17:05:07.260Z,101624.59
2022-10-08T17:07:36.960Z,101607.28
2022-10-08T17:10:08.836Z,101620.84
2022-10-08T17:12:38.575Z,101641.47
2022-10-08T17:15:12.088Z,101655.34
2022-10-08T17:17:41.893Z,101656.00
2022-10-08T17:20:12.101Z,101667.25
2022-10-08T17:22:41.936Z,101642.06
2022-10-08T17:25:12.716Z,101645.38
2022-10-08T17:27:43.500Z,101657.53
2022-10-08T17:30:16.845Z,101668.59
2022-10-08T17:32:46.820Z,101673.34
2022-10-08T17:35:16.955Z,101689.47
2022-10-08T17:37:46.827Z,101666.66
2022-10-08T17:40:16.845Z,101682.25
2022-10-08T17:42:46.836Z,101694.44
2022-10-08T17:45:22.205Z,101696.03
2022-10-08T17:47:52.957Z,101718.44
2022-10-08T17:50:22.917Z,101722.63
2022-10-08T17:52:52.645Z,101735.94
2022-10-08T17:55:22.392Z,101750.47
2022-10-08T17:57:52.086Z,101753.91
2022-10-08T18:00:25.832Z,101728.09
2022-10-08T18:02:55.809Z,101732.25
2022-10-08T18:05:25.601Z,101707.94
2022-10-08T18:07:56.351Z,101717.28
2022-10-08T18:10:26.078Z,101750.06
2022-10-08T18:12:56.801Z,101739.44
2022-10-08T18:15:30.893Z,101755.00
2022-10-08T18:18:02.590Z,101765.19
2022-10-08T18:20:34.453Z,101752.06
2022-10-08T18:23:08.619Z,101768.31
2022-10-08T18:25:39.329Z,101768.28
2022-10-08T18:28:10.941Z,101768.09
2022-10-08T18:30:44.300Z,101775.88
2022-10-08T18:33:16.271Z,101754.81
2022-10-08T18:35:46.899Z,101783.22
2022-10-08T18:38:18.076Z,101781.09
2022-10-08T18:40:50.454Z,101783.59
2022-10-08T18:43:22.079Z,101749.59
2022-10-08T18:45:56.463Z,101782.91
2022-10-08T18:48:26.511Z,101798.91
2022-10-08T18:50:56.216Z,101786.31
2022-10-08T18:53:26.970Z,101775.88
2022-10-08T18:55:56.694Z,101811.53
2022-10-08T18:58:27.438Z,101807.91
2022-10-08T19:01:00.442Z,101819.16
2022-10-08T19:03:30.276Z,101787.53
2022-10-08T19:06:02.025Z,101810.97
2022-10-08T19:08:31.811Z,101806.63
2022-10-08T19:11:11.301Z,101819.28
2022-10-08T19:13:41.083Z,101822.78
2022-10-08T19:16:15.909Z,101824.47
2022-10-08T19:18:54.409Z,101821.78
2022-10-08T19:21:24.889Z,101792.00
2022-10-08T19:23:56.265Z,101812.97
2022-10-08T19:26:27.955Z,101808.47
2022-10-08T19:28:59.415Z,101828.97
2022-10-08T19:31:33.701Z,101833.22
2022-10-08T19:34:05.304Z,101832.78
2022-10-08T19:36:37.675Z,101835.34
2022-10-08T19:39:10.657Z,101842.19
2022-10-08T19:41:42.551Z,101847.78
2022-10-08T19:44:14.450Z,101834.84
2022-10-08T19:46:47.374Z,101835.22
2022-10-08T19:49:18.660Z,101837.97
2022-10-08T19:51:49.507Z,101851.50
2022-10-08T19:54:20.283Z,101820.91
2022-10-08T19:56:51.992Z,101851.00
2022-10-08T19:59:22.812Z,101843.97
2022-10-08T20:01:56.230Z,101861.41
2022-10-08T20:04:26.040Z,101863.56
2022-10-08T20:06:55.801Z,101815.28
2022-10-08T20:09:27.229Z,101854.34
2022-10-08T20:11:58.117Z,101866.50
2022-10-08T20:14:28.045Z,101878.47
2022-10-08T20:17:01.414Z,101863.69
2022-10-08T20:19:31.225Z,101885.19
2022-10-08T20:22:00.994Z,101877.94
2022-10-08T20:24:30.979Z,101884.91
2022-10-08T20:27:00.838Z,101888.25
2022-10-08T20:29:31.775Z,101866.97
2022-10-08T20:32:04.165Z,101881.09
2022-10-08T20:34:33.976Z,101881.78
2022-10-08T20:37:04.715Z,101897.72
2022-10-08T20:39:34.669Z,101903.84
2022-10-08T20:42:05.472Z,101849.09
2022-10-08T20:44:36.283Z,101891.44
2022-10-08T20:47:08.706Z,101896.47
2022-10-08T20:49:38.462Z,101889.75
2022-10-08T20:52:08.343Z,101907.47
2022-10-08T20:54:38.099Z,101913.19
2022-10-08T20:57:09.028Z,101898.03
2022-10-08T20:59:39.820Z,101903.91
2022-10-08T21:02:18.909Z,101902.97
2022-10-08T21:04:52.564Z,101893.63
2022-10-08T21:07:23.328Z,101924.59
2022-10-08T21:09:53.151Z,101913.78
2022-10-08T21:12:23.913Z,101908.53
2022-10-08T21:14:54.628Z,101737.66
2022-10-08T21:17:26.932Z,101922.53
2022-10-08T21:19:56.714Z,101904.59
2022-10-08T21:22:26.659Z,101927.03
2022-10-08T21:24:56.414Z,101923.78
2022-10-08T21:27:27.282Z,101932.03
2022-10-08T21:29:57.093Z,101902.97
2022-10-08T21:32:29.437Z,101929.25
2022-10-08T21:34:59.249Z,101930.41
2022-10-08T21:37:33.616Z,101919.03
2022-10-08T21:40:03.434Z,101917.56
2022-10-08T21:42:33.239Z,101888.59
2022-10-08T21:45:03.035Z,101927.16
2022-10-08T21:47:36.652Z,101939.91
2022-10-08T21:50:10.956Z,101931.22
2022-10-08T21:52:41.707Z,101946.41
2022-10-08T21:55:12.120Z,101949.66
2022-10-08T21:57:43.891Z,101957.59
2022-10-08T22:00:16.095Z,101955.22
2022-10-08T22:02:49.642Z,101955.81
2022-10-08T22:05:19.795Z,101950.13
2022-10-08T22:07:49.567Z,101942.19
2022-10-08T22:10:20.476Z,101952.66
2022-10-08T22:12:50.396Z,101895.31
2022-10-08T22:15:21.935Z,101949.09
2022-10-08T22:17:54.358Z,101957.69
2022-10-08T22:20:24.124Z,101932.28
2022-10-08T22:22:55.992Z,101908.59
2022-10-08T22:25:25.823Z,101930.25
2022-10-08T22:27:58.548Z,101953.34
2022-10-08T22:30:28.519Z,101957.91
2022-10-08T22:33:01.887Z,101960.28
2022-10-08T22:35:34.191Z,101956.06
2022-10-08T22:38:03.945Z,101943.38
2022-10-08T22:40:34.768Z,101958.06
2022-10-08T22:43:05.780Z,101950.97
2022-10-08T22:45:41.547Z,101958.22
2022-10-08T22:48:14.077Z,101935.34
2022-10-08T22:50:44.858Z,101948.28
2022-10-08T22:53:14.769Z,101949.47
2022-10-08T22:55:46.489Z,101948.28
2022-10-08T22:58:18.198Z,101922.56
2022-10-08T23:00:48.940Z,101918.06
2022-10-08T23:03:22.311Z,101959.47
2022-10-08T23:05:52.115Z,101949.47
2022-10-08T23:08:21.824Z,101952.19
2022-10-08T23:10:56.892Z,101940.50
2022-10-08T23:13:31.143Z,101911.13
2022-10-08T23:16:03.598Z,101942.53
2022-10-08T23:18:38.808Z,101955.88
2022-10-08T23:21:12.544Z,101948.22
2022-10-08T23:23:43.399Z,101959.22
2022-10-08T23:26:14.975Z,101963.06
2022-10-08T23:28:47.124Z,101951.38
2022-10-08T23:31:18.881Z,101948.88
2022-10-08T23:33:54.111Z,101957.69
2022-10-08T23:36:26.962Z,101941.25
2022-10-08T23:38:57.204Z,101960.91
2022-10-08T23:41:27.821Z,101946.13
2022-10-08T23:43:59.588Z,101966.22
2022-10-08T23:46:32.876Z,101953.00
2022-10-08T23:49:05.264Z,101960.22
2022-10-08T23:51:36.104Z,101927.50
2022-10-08T23:54:08.653Z,101948.50
2022-10-08T23:56:39.395Z,101964.06
2022-10-08T23:59:09.568Z,101949.22
